Time;durP1;ratioP1;P1;durP2;ratioP2;P2;SDS_P1;SDS_P2;PMS_P1;PMS_P2;Temp;Humidity;BMP_temperature;BMP_pressure;BME280_temperature;BME280_humidity;BME280_pressure;Samples;Min_cycle;Max_cycle;Signal;HPM_P1;HPM_P2
2022/08/28 00:01:01;;;;;;;;;;;;;;;;;;4969192;28;19944;-68
2022/08/28 00:03:28;;;;;;;;;;;;;;;;;;4966953;28;19934;-68
2022/08/28 00:05:56;;;;;;;;;;;;;;;;;;4967763;28;20025;-68
2022/08/28 00:08:23;;;;;;;;;;;;;;;;;;4965647;28;19945;-69
2022/08/28 00:10:50;;;;;;;;;;;;;;;;;;4969862;28;19972;-69
2022/08/28 00:13:17;;;;;;;;;;;;;;;;;;4969619;28;20018;-69
2022/08/28 00:15:44;;;;;;;;;;;;;;;;;;4980345;28;19984;-69
2022/08/28 00:18:11;;;;;;;;;;;;;;;;;;4963605;28;20153;-68
2022/08/28 00:20:38;;;;;;;;;;;;;;;;;;4965439;28;19926;-69
2022/08/28 00:23:05;;;;;;;;;;;;;;;;;;4968264;28;19926;-68
2022/08/28 00:25:32;;;;;;;;;;;;;;;;;;4969485;28;19930;-69
2022/08/28 00:27:58;;;;;;;;;;;;;;;;;;4968692;28;19930;-69
2022/08/28 00:30:25;;;;;;;;;;;;;;;;;;4970332;28;20009;-68
2022/08/28 00:32:52;;;;;;;;;;;;;;;;;;4961323;28;20443;-69
2022/08/28 00:35:19;;;;;;;;;;;;;;;;;;4967182;28;19953;-68
2022/08/28 00:37:46;;;;;;;;;;;;;;;;;;4961971;28;19980;-68
2022/08/28 00:40:13;;;;;;;;;;;;;;;;;;4967552;28;19926;-69
2022/08/28 00:42:40;;;;;;;;;;;;;;;;;;4969199;28;19930;-69
2022/08/28 00:45:07;;;;;;;;;;;;;;;;;;4966732;28;19930;-69
2022/08/28 00:47:34;;;;;;;;;;;;;;;;;;4967017;28;19926;-69
2022/08/28 00:50:01;;;;;;;;;;;;;;;;;;4967268;28;19975;-68
2022/08/28 00:52:27;;;;;;;;;;;;;;;;;;4956602;28;19933;-69
2022/08/28 00:54:54;;;;;;;;;;;;;;;;;;4967247;28;19926;-69
2022/08/28 00:57:21;;;;;;;;;;;;;;;;;;4967352;28;20025;-69
2022/08/28 00:59:47;;;;;;;;;;;;;;;;;;4962946;28;20018;-69
2022/08/28 01:02:14;;;;;;;;;;;;;;;;;;4966691;28;20005;-69
2022/08/28 01:04:41;;;;;;;;;;;;;;;;;;4969020;28;19926;-69
2022/08/28 01:07:08;;;;;;;;;;;;;;;;;;4960944;28;19933;-69
2022/08/28 01:09:35;;;;;;;;;;;;;;;;;;4962233;28;19926;-69
2022/08/28 01:12:02;;;;;;;;;;;;;;;;;;4967802;28;20103;-69
2022/08/28 01:14:29;;;;;;;;;;;;;;;;;;4966351;28;19926;-69
2022/08/28 01:16:56;;;;;;;;;;;;;;;;;;4968289;28;20018;-69
2022/08/28 01:19:25;;;;;;;;;;;;;;;;;;4966143;28;19936;-69
2022/08/28 01:21:52;;;;;;;;;;;;;;;;;;4962806;28;19937;-69
2022/08/28 01:24:19;;;;;;;;;;;;;;;;;;4958510;28;20017;-69
2022/08/28 01:26:46;;;;;;;;;;;;;;;;;;4969810;28;19933;-68
2022/08/28 01:29:13;;;;;;;;;;;;;;;;;;4967575;28;20316;-70
2022/08/28 01:31:40;;;;;;;;;;;;;;;;;;4968250;28;20039;-70
2022/08/28 01:34:06;;;;;;;;;;;;;;;;;;4968637;28;19961;-70
2022/08/28 01:36:33;;;;;;;;;;;;;;;;;;4970000;28;20021;-69
2022/08/28 01:39:00;;;;;;;;;;;;;;;;;;4968971;28;19937;-69
2022/08/28 01:41:28;;;;;;;;;;;;;;;;;;4976601;28;19932;-69
2022/08/28 01:43:55;;;;;;;;;;;;;;;;;;4970510;28;19979;-70
2022/08/28 01:46:22;;;;;;;;;;;;;;;;;;4963720;28;19939;-67
2022/08/28 01:48:49;;;;;;;;;;;;;;;;;;4972940;28;19940;-67
2022/08/28 01:51:16;;;;;;;;;;;;;;;;;;4962300;28;20427;-70
2022/08/28 01:53:43;;;;;;;;;;;;;;;;;;4958929;28;20385;-68
2022/08/28 01:56:10;;;;;;;;;;;;;;;;;;4967887;28;19929;-68
2022/08/28 01:58:37;;;;;;;;;;;;;;;;;;4968726;28;19932;-68
2022/08/28 02:01:04;;;;;;;;;;;;;;;;;;4966717;28;19937;-68
2022/08/28 02:03:32;;;;;;;;;;;;;;;;;;4962440;28;20029;-69
2022/08/28 02:05:59;;;;;;;;;;;;;;;;;;4966751;28;19953;-69
2022/08/28 02:08:26;;;;;;;;;;;;;;;;;;4962792;28;19926;-69
2022/08/28 02:10:53;;;;;;;;;;;;;;;;;;4964913;28;19926;-69
2022/08/28 02:13:21;;;;;;;;;;;;;;;;;;4967400;28;19941;-69
2022/08/28 02:15:49;;;;;;;;;;;;;;;;;;4969006;28;19976;-69
2022/08/28 02:18:16;;;;;;;;;;;;;;;;;;4963265;28;19926;-69
2022/08/28 02:20:43;;;;;;;;;;;;;;;;;;4968201;28;19934;-69
2022/08/28 02:23:10;;;;;;;;;;;;;;;;;;4965436;28;19976;-69
2022/08/28 02:25:38;;;;;;;;;;;;;;;;;;4967126;28;19933;-69
2022/08/28 02:28:05;;;;;;;;;;;;;;;;;;4966163;28;19991;-70
2022/08/28 02:30:32;;;;;;;;;;;;;;;;;;4962899;28;19933;-69
2022/08/28 02:32:59;;;;;;;;;;;;;;;;;;4956971;28;19930;-69
2022/08/28 02:35:26;;;;;;;;;;;;;;;;;;4968137;28;19926;-69
2022/08/28 02:37:53;;;;;;;;;;;;;;;;;;4966376;28;19926;-69
2022/08/28 02:40:19;;;;;;;;;;;;;;;;;;4969554;28;20017;-69
2022/08/28 02:42:46;;;;;;;;;;;;;;;;;;4967078;28;19926;-69
2022/08/28 02:45:13;;;;;;;;;;;;;;;;;;4966846;28;19979;-69
2022/08/28 02:47:41;;;;;;;;;;;;;;;;;;4964329;28;19926;-69
2022/08/28 02:50:08;;;;;;;;;;;;;;;;;;4966837;28;19926;-70
2022/08/28 02:52:35;;;;;;;;;;;;;;;;;;4962854;28;19931;-69
2022/08/28 02:55:02;;;;;;;;;;;;;;;;;;4961864;28;19930;-69
2022/08/28 02:57:29;;;;;;;;;;;;;;;;;;4968329;28;19973;-69
2022/08/28 02:59:57;;;;;;;;;;;;;;;;;;4965524;28;19933;-69
2022/08/28 03:02:24;;;;;;;;;;;;;;;;;;4968146;28;19934;-69
2022/08/28 03:04:51;;;;;;;;;;;;;;;;;;4966321;28;19926;-69
2022/08/28 03:07:18;;;;;;;;;;;;;;;;;;4966170;28;19926;-69
2022/08/28 03:09:45;;;;;;;;;;;;;;;;;;4963655;28;20439;-69
2022/08/28 03:12:13;;;;;;;;;;;;;;;;;;4965500;28;20554;-69
2022/08/28 03:14:40;;;;;;;;;;;;;;;;;;4967828;28;19933;-69
2022/08/28 03:17:07;;;;;;;;;;;;;;;;;;4963181;28;19934;-69
2022/08/28 03:19:34;;;;;;;;;;;;;;;;;;4962283;28;19940;-69
2022/08/28 03:22:01;;;;;;;;;;;;;;;;;;4966987;28;19940;-69
2022/08/28 03:24:27;;;;;;;;;;;;;;;;;;4967180;28;19926;-69
2022/08/28 03:26:54;;;;;;;;;;;;;;;;;;4965365;28;19941;-69
2022/08/28 03:29:21;;;;;;;;;;;;;;;;;;4967684;28;19926;-69
2022/08/28 03:31:48;;;;;;;;;;;;;;;;;;4965303;28;19926;-69
2022/08/28 03:34:15;;;;;;;;;;;;;;;;;;4967504;28;19926;-69
2022/08/28 03:36:42;;;;;;;;;;;;;;;;;;4966538;28;19926;-69
2022/08/28 03:39:10;;;;;;;;;;;16.00;99.90;;;;;;4968599;28;20195;-69
2022/08/28 03:41:37;;;;;;;;;;;16.00;99.90;;;;;;4973122;28;19926;-69
2022/08/28 03:44:04;;;;;;;;;;;15.90;99.90;;;;;;4966174;28;20017;-69
2022/08/28 03:46:32;;;;;;;;;;;15.90;99.90;;;;;;4965218;28;19934;-69
2022/08/28 03:48:59;;;;;;;;;;;15.90;99.90;;;;;;4963582;28;19965;-69
2022/08/28 03:51:27;;;;;;;;;;;15.90;99.90;;;;;;4966260;28;20017;-69
2022/08/28 03:53:54;;;;;;;;;;;15.90;99.90;;;;;;4964576;28;19934;-69
2022/08/28 03:56:23;;;;;;;;;;;15.90;99.90;;;;;;4962579;28;19926;-69
2022/08/28 03:58:51;;;;;;;;;;;15.90;99.90;;;;;;4963435;28;19927;-69
2022/08/28 04:01:18;;;;;;;;;;;15.90;99.90;;;;;;4961221;28;20581;-69
2022/08/28 04:03:45;;;;;;;;;;;15.90;99.90;;;;;;4967250;28;19933;-69
2022/08/28 04:06:12;;;;;;;;;;;15.80;99.90;;;;;;4960596;28;20381;-69
2022/08/28 04:08:39;;;;;;;;;;;15.80;99.90;;;;;;4965446;28;19933;-69
2022/08/28 04:11:06;;;;;;;;;;;15.80;99.90;;;;;;4965207;28;20359;-69
2022/08/28 04:13:34;;;;;;;;;;;15.80;99.90;;;;;;4961464;28;19972;-69
2022/08/28 04:16:02;;;;;;;;;;;15.80;99.90;;;;;;4962109;28;20360;-70
2022/08/28 04:18:30;;;;;;;;;;;15.80;99.90;;;;;;4963322;28;20025;-69
2022/08/28 04:20:57;;;;;;;;;;;15.80;99.90;;;;;;4962677;28;20464;-69
2022/08/28 04:23:24;;;;;;;;;;;15.80;99.90;;;;;;4962779;28;20291;-69
2022/08/28 04:25:51;;;;;;;;;;;15.80;99.90;;;;;;4966955;28;20359;-69
2022/08/28 04:28:17;;;;;;;;;;;15.80;99.90;;;;;;4964434;28;20403;-69
2022/08/28 04:30:46;;;;;;;;;;;15.80;99.90;;;;;;4968203;28;20288;-69
2022/08/28 04:33:12;;;;;;;;;;;15.80;99.90;;;;;;4968501;28;19933;-70
2022/08/28 04:35:40;;;;;;;;;;;15.70;99.90;;;;;;4971144;28;19973;-70
2022/08/28 04:38:07;;;;;;;;;;;15.60;99.90;;;;;;4967504;28;20021;-70
2022/08/28 04:40:33;;;;;;;;;;;15.70;99.90;;;;;;4968769;28;20013;-70
2022/08/28 04:43:00;;;;;;;;;;;15.70;99.90;;;;;;4967232;28;19926;-69
2022/08/28 04:45:27;;;;;;;;;;;15.70;99.90;;;;;;4964623;28;19926;-70
2022/08/28 04:47:55;;;;;;;;;;;15.70;99.90;;;;;;4963024;28;19926;-70
2022/08/28 04:50:21;;;;;;;;;;;15.70;99.90;;;;;;4969439;28;20020;-69
2022/08/28 04:52:50;;;;;;;;;;;15.70;99.90;;;;;;4963757;28;20024;-69
2022/08/28 04:55:17;;;;;;;;;;;15.60;99.90;;;;;;4965607;28;20024;-69
2022/08/28 04:57:43;;;;;;;;;;;15.60;99.90;;;;;;4967693;28;19934;-70
2022/08/28 05:00:11;;;;;;;;;;;15.60;99.90;;;;;;4960565;28;19927;-69
2022/08/28 05:02:38;;;;;;;;;;;15.60;99.90;;;;;;4958332;28;19930;-70
2022/08/28 05:05:06;;;;;;;;;;;15.60;99.90;;;;;;4969538;28;19933;-70
2022/08/28 05:07:33;;;;;;;;;;;15.60;99.90;;;;;;4966279;28;19980;-70
2022/08/28 05:10:00;;;;;;;;;;;15.60;99.90;;;;;;4967368;28;19926;-69
2022/08/28 05:12:27;;;;;;;;;;;15.60;99.90;;;;;;4967432;28;20016;-70
2022/08/28 05:14:53;;;;;;;;;;;15.60;99.90;;;;;;4969983;28;19973;-70
2022/08/28 05:17:20;;;;;;;;;;;15.60;99.90;;;;;;4966894;28;19926;-70
2022/08/28 05:19:48;;;;;;;;;;;15.60;99.90;;;;;;4967334;28;20010;-71
2022/08/28 05:22:16;;;;;;;;;;;15.60;99.90;;;;;;4967225;28;20360;-71
2022/08/28 05:24:43;;;;;;;;;;;15.60;99.90;;;;;;4962295;28;20032;-70
2022/08/28 05:27:09;;;;;;;;;;;15.60;99.90;;;;;;4967136;28;19926;-70
2022/08/28 05:29:36;;;;;;;;;;;15.60;99.90;;;;;;4964031;28;19969;-70
2022/08/28 05:32:04;;;;;;;;;;;15.60;99.90;;;;;;4960806;28;19930;-71
2022/08/28 05:34:31;;;;;;;;;;;15.60;99.90;;;;;;4971378;28;20432;-70
2022/08/28 05:36:58;;;;;;;;;;;15.60;99.90;;;;;;4966348;28;19932;-70
2022/08/28 05:39:26;;;;;;;;;;;15.60;99.90;;;;;;4963714;28;19926;-71
2022/08/28 05:41:53;;;;;;;;;;;15.60;99.90;;;;;;4966240;28;19940;-71
2022/08/28 05:44:19;;;;;;;;;;;15.60;99.90;;;;;;4967226;28;20126;-71
2022/08/28 05:46:47;;;;;;;;;;;15.60;99.90;;;;;;4968080;28;19933;-71
2022/08/28 05:49:14;;;;;;;;;;;15.50;99.90;;;;;;4969539;28;19926;-71
2022/08/28 05:51:42;;;;;;;;;;;15.50;99.90;;;;;;4967697;28;20017;-71
2022/08/28 05:54:08;;;;;;;;;;;15.60;99.90;;;;;;4969133;28;19961;-71
2022/08/28 05:56:37;;;;;;;;;;;15.50;99.90;;;;;;4962665;28;20296;-71
2022/08/28 05:59:05;;;;;;;;;;;15.50;99.90;;;;;;4969880;28;20029;-71
2022/08/28 06:01:33;;;;;;;;;;;15.40;99.90;;;;;;4964207;28;19937;-72
2022/08/28 06:04:00;;;;;;;;;;;15.30;99.90;;;;;;4965685;28;20004;-71
2022/08/28 06:06:28;;;;;;;;;;;15.30;99.90;;;;;;4966378;28;19934;-71
2022/08/28 06:08:56;;;;;;;;;;;15.30;99.90;;;;;;4963900;28;20021;-70
2022/08/28 06:11:23;;;;;;;;;;;15.30;99.90;;;;;;4964383;28;20013;-70
2022/08/28 06:13:51;;;;;;;;;;;15.30;99.90;;;;;;4965616;28;19932;-71
2022/08/28 06:16:18;;;;;;;;;;;15.30;99.90;;;;;;4970635;28;19926;-70
2022/08/28 06:18:46;;;;;;;;;;;15.30;99.90;;;;;;4961959;28;20005;-71
2022/08/28 06:21:13;;;;;;;;;;;15.30;99.90;;;;;;4968326;28;20502;-70
2022/08/28 06:23:39;;;;;;;;;;;15.40;99.90;;;;;;4964728;28;20357;-71
2022/08/28 06:26:06;;;;;;;;;;;15.40;99.90;;;;;;4969814;28;19957;-71
2022/08/28 06:28:33;;;;;;;;;;;15.50;99.90;;;;;;4957858;28;19933;-71
2022/08/28 06:31:03;;;;;;;;;;;15.60;99.90;;;;;;4965910;28;20331;-71
2022/08/28 06:33:30;;;;;;;;;;;15.60;99.90;;;;;;4962576;28;19972;-70
2022/08/28 06:35:57;;;;;;;;;;;15.60;99.90;;;;;;4968280;28;20389;-70
2022/08/28 06:38:25;;;;;;;;;;;15.70;99.90;;;;;;4965078;28;20538;-70
2022/08/28 06:40:53;;;;;;;;;;;15.70;99.90;;;;;;4968062;28;20021;-70
2022/08/28 06:43:21;;;;;;;;;;;15.90;99.90;;;;;;4954835;28;19927;-70
2022/08/28 06:45:52;;;;;;;;;;;15.90;99.90;;;;;;4962670;28;19934;-69
2022/08/28 06:48:22;;;;;;;;;;;16.00;99.90;;;;;;4958894;28;19926;-70
2022/08/28 06:50:50;;;;;;;;;;;16.00;99.90;;;;;;4972111;28;19933;-69
2022/08/28 06:53:18;;;;;;;;;;;16.00;99.90;;;;;;4958617;28;19934;-71
2022/08/28 06:55:45;;;;;;;;;;;15.90;99.90;;;;;;4964305;28;20015;-70
2022/08/28 06:58:12;;;;;;;;;;;16.00;99.90;;;;;;4961505;28;20029;-68
2022/08/28 07:00:40;;;;;;;;;;;16.10;99.90;;;;;;4963201;28;19926;-70
2022/08/28 07:03:06;;;;;;;;;;;16.20;99.90;;;;;;4967414;28;20021;-70
2022/08/28 07:05:34;;;;;;;;;;;16.20;99.90;;;;;;4956219;28;19944;-70
2022/08/28 07:08:01;;;;;;;;;;;16.30;99.90;;;;;;4959398;28;19973;-68
2022/08/28 07:10:28;;;;;;;;;;;16.40;99.90;;;;;;4965791;28;19958;-68
2022/08/28 07:12:55;;;;;;;;;;;16.50;99.90;;;;;;4961155;28;20012;-68
2022/08/28 07:15:21;;;;;;;;;;;16.60;99.90;;;;;;4970161;28;19926;-68
2022/08/28 07:17:48;;;;;;;;;;;16.80;99.90;;;;;;4966054;28;20062;-69
2022/08/28 07:20:15;;;;;;;;;;;17.00;99.90;;;;;;4965594;28;20025;-69
2022/08/28 07:22:43;;;;;;;;;;;17.30;99.90;;;;;;4957115;28;19952;-69
2022/08/28 07:25:10;;;;;;;;;;;17.70;99.90;;;;;;4956089;28;20019;-68
2022/08/28 07:27:37;;;;;;;;;;;18.60;99.90;;;;;;4954216;28;20023;-68
2022/08/28 07:30:05;;;;;;;;;;;19.30;99.90;;;;;;4964662;28;19930;-68
2022/08/28 07:32:32;;;;;;;;;;;18.80;99.90;;;;;;4964742;28;19934;-68
2022/08/28 07:34:59;;;;;;;;;;;19.00;99.90;;;;;;4951901;28;19945;-68
2022/08/28 07:37:26;;;;;;;;;;;19.30;99.90;;;;;;4959512;28;19927;-69
2022/08/28 07:39:54;;;;;;;;;;;19.50;99.90;;;;;;4959406;28;20202;-69
2022/08/28 07:45:01;;;;;;;;;;;19.90;99.90;;;;;;4962773;28;19940;-68
2022/08/28 07:47:29;;;;;;;;;;;20.20;99.90;;;;;;4955355;28;19965;-70
2022/08/28 07:49:56;;;;;;;;;;;20.60;99.90;;;;;;4965151;28;20067;-69
2022/08/28 07:52:23;;;;;;;;;;;20.80;99.90;;;;;;4963812;28;19930;-68
2022/08/28 07:54:49;;;;;;;;;;;19.90;99.90;;;;;;4965335;28;20017;-68
2022/08/28 07:57:19;;;;;;;;;;;19.90;99.90;;;;;;4963990;28;20468;-68
2022/08/28 07:59:46;;;;;;;;;;;19.50;99.90;;;;;;4968942;28;20024;-68
2022/08/28 08:02:13;;;;;;;;;;;20.10;99.90;;;;;;4964089;28;20005;-68
2022/08/28 08:04:40;;;;;;;;;;;20.10;99.90;;;;;;4962864;28;19933;-68
2022/08/28 08:07:07;;;;;;;;;;;19.60;99.90;;;;;;4969329;28;19930;-68
2022/08/28 08:09:36;;;;;;;;;;;19.60;99.90;;;;;;4965051;28;20398;-68
2022/08/28 08:12:04;;;;;;;;;;;19.70;99.90;;;;;;4956424;28;19931;-68
2022/08/28 08:14:32;;;;;;;;;;;19.30;99.90;;;;;;4963895;28;19932;-68
2022/08/28 08:17:01;;;;;;;;;;;19.90;99.90;;;;;;4969263;28;20385;-69
2022/08/28 08:19:28;;;;;;;;;;;20.00;99.90;;;;;;4969580;28;19926;-68
2022/08/28 08:21:55;;;;;;;;;;;19.70;99.90;;;;;;4967901;28;19953;-68
2022/08/28 08:24:24;;;;;;;;;;;19.60;99.90;;;;;;4970329;28;19935;-68
2022/08/28 08:26:52;;;;;;;;;;;19.20;99.90;;;;;;4967258;28;19933;-68
2022/08/28 08:29:19;;;;;;;;;;;20.30;99.90;;;;;;4971170;28;19934;-68
2022/08/28 08:31:54;;;;;;;;;;;20.40;99.90;;;;;;4968204;28;20020;-68
2022/08/28 08:34:20;;;;;;;;;;;19.60;99.90;;;;;;4968454;28;20067;-68
2022/08/28 08:36:47;;;;;;;;;;;19.40;99.90;;;;;;4968514;28;20009;-68
2022/08/28 08:39:14;;;;;;;;;;;19.90;99.90;;;;;;4969865;28;20392;-68
2022/08/28 08:41:46;;;;;;;;;;;20.40;99.90;;;;;;4967833;28;20008;-68
2022/08/28 08:44:17;;;;;;;;;;;20.50;99.90;;;;;;4967203;28;20403;-68
2022/08/28 08:46:47;;;;;;;;;;;20.60;99.90;;;;;;4967494;28;19940;-68
2022/08/28 08:49:18;;;;;;;;;;;20.50;99.90;;;;;;4965555;28;19933;-68
2022/08/28 08:51:47;;;;;;;;;;;20.80;99.90;;;;;;4966419;28;19926;-68
2022/08/28 08:54:14;;;;;;;;;;;21.10;99.90;;;;;;4967726;28;20425;-68
2022/08/28 08:56:42;;;;;;;;;;;21.20;99.90;;;;;;4965583;28;20005;-68
2022/08/28 08:59:14;;;;;;;;;;;20.70;99.90;;;;;;4965301;28;19926;-68
2022/08/28 09:01:43;;;;;;;;;;;20.90;99.90;;;;;;4954922;28;19926;-68
2022/08/28 09:04:16;;;;;;;;;;;20.70;99.90;;;;;;4962383;28;20409;-68
2022/08/28 09:06:47;;;;;;;;;;;20.90;99.90;;;;;;4959721;28;20021;-68
2022/08/28 09:09:16;;;;;;;;;;;20.80;99.90;;;;;;4957751;28;19926;-68
2022/08/28 09:11:46;;;;;;;;;;;21.20;99.90;;;;;;4968262;28;19934;-68
2022/08/28 09:14:18;;;;;;;;;;;21.50;99.90;;;;;;4966479;28;19930;-68
2022/08/28 09:16:45;;;;;;;;;;;20.90;99.90;;;;;;4962751;28;19936;-68
2022/08/28 09:19:15;;;;;;;;;;;20.70;99.90;;;;;;4959218;28;19926;-68
2022/08/28 09:21:43;;;;;;;;;;;21.40;99.90;;;;;;4955078;28;19944;-68
2022/08/28 09:24:16;;;;;;;;;;;21.30;99.90;;;;;;4962383;28;19934;-68
2022/08/28 09:26:43;;;;;;;;;;;21.10;99.90;;;;;;4961836;28;20215;-69
2022/08/28 09:29:15;;;;;;;;;;;21.00;99.90;;;;;;4962319;28;19982;-68
2022/08/28 09:31:42;;;;;;;;;;;21.20;99.90;;;;;;4957603;28;19934;-68
2022/08/28 09:34:17;;;;;;;;;;;20.90;99.90;;;;;;4970010;28;19965;-67
2022/08/28 09:36:44;;;;;;;;;;;21.20;99.90;;;;;;4965970;28;20013;-69
2022/08/28 09:39:16;;;;;;;;;;;21.50;99.90;;;;;;4968121;28;19926;-68
2022/08/28 09:44:32;;;;;;;;;;;21.60;99.90;;;;;;4952225;29;19976;-69
2022/08/28 09:46:59;;;;;;;;;;;21.60;99.90;;;;;;4952520;28;20025;-69
2022/08/28 09:49:28;;;;;;;;;;;21.90;99.90;;;;;;4967935;28;20017;-69
2022/08/28 09:51:55;;;;;;;;;;;21.10;99.90;;;;;;4967934;28;19940;-69
2022/08/28 09:54:27;;;;;;;;;;;20.60;99.90;;;;;;4958574;28;20381;-69
2022/08/28 09:56:54;;;;;;;;;;;21.50;99.90;;;;;;4955382;28;19934;-69
2022/08/28 09:59:22;;;;;;;;;;;21.50;99.90;;;;;;4970977;28;19926;-69
2022/08/28 10:01:53;;;;;;;;;;;21.00;99.90;;;;;;4968878;28;20033;-67
2022/08/28 10:04:34;;;;;;;;;;;20.30;99.90;;;;;;4971059;28;20013;-67
2022/08/28 10:07:03;;;;;;;;;;;20.30;99.90;;;;;;4967186;28;20025;-68
2022/08/28 10:09:34;;;;;;;;;;;20.40;99.90;;;;;;4971480;28;19969;-67
2022/08/28 10:12:10;;;;;;;;;;;20.30;99.90;;;;;;4969402;28;20033;-67
2022/08/28 10:14:41;;;;;;;;;;;20.20;99.90;;;;;;4971216;28;19930;-67
2022/08/28 10:17:12;;;;;;;;;;;20.20;99.90;;;;;;4967356;28;19962;-67
2022/08/28 10:19:43;;;;;;;;;;;20.20;99.90;;;;;;4908963;28;1810282;-68
2022/08/28 10:22:16;;;;;;;;;;;20.30;99.90;;;;;;4970109;28;19926;-67
2022/08/28 10:24:52;;;;;;;;;;;20.50;99.90;;;;;;4970452;28;19926;-67
2022/08/28 10:27:26;;;;;;;;;;;20.90;99.90;;;;;;4968766;28;20385;-67
2022/08/28 10:29:58;;;;;;;;;;;20.60;99.90;;;;;;4970051;28;19932;-68
2022/08/28 10:32:37;;;;;;;;;;;20.50;99.90;;;;;;4960294;28;20503;-67
2022/08/28 10:35:08;;;;;;;;;;;20.70;99.90;;;;;;4971269;28;20341;-68
2022/08/28 10:37:38;;;;;;;;;;;20.90;99.90;;;;;;4968468;28;19927;-68
2022/08/28 10:40:10;;;;;;;;;;;20.70;99.90;;;;;;4970067;28;20339;-67
2022/08/28 10:42:39;;;;;;;;;;;20.90;99.90;;;;;;4968455;28;19927;-68
2022/08/28 10:45:09;;;;;;;;;;;20.80;99.90;;;;;;4971369;28;19926;-68
2022/08/28 10:47:40;;;;;;;;;;;20.90;99.90;;;;;;4967521;28;19972;-68
2022/08/28 10:50:10;;;;;;;;;;;20.90;99.90;;;;;;4970854;28;20340;-68
2022/08/28 10:52:39;;;;;;;;;;;20.70;99.90;;;;;;4968315;28;19968;-68
2022/08/28 10:55:11;;;;;;;;;;;20.80;99.90;;;;;;4969695;28;20331;-68
2022/08/28 10:57:41;;;;;;;;;;;21.10;99.90;;;;;;4969070;28;19926;-67
2022/08/28 11:00:10;;;;;;;;;;;21.20;99.90;;;;;;4970067;28;19934;-68
2022/08/28 11:02:38;;;;;;;;;;;21.20;99.90;;;;;;4968099;28;19930;-69
2022/08/28 11:05:06;;;;;;;;;;;21.20;99.90;;;;;;4969860;28;19949;-69
2022/08/28 11:07:35;;;;;;;;;;;21.20;99.90;;;;;;4966140;28;20032;-68
2022/08/28 11:10:21;;;;;;;;;;;21.30;99.90;;;;;;4971142;28;19973;-68
2022/08/28 11:12:50;;;;;;;;;;;20.90;99.90;;;;;;4965445;28;19938;-68
2022/08/28 11:15:35;;;;;;;;;;;21.00;99.90;;;;;;4968577;28;19938;-69
2022/08/28 11:18:18;;;;;;;;;;;21.10;99.90;;;;;;4968795;28;19933;-68
2022/08/28 11:20:55;;;;;;;;;;;21.20;99.90;;;;;;4969971;28;19926;-69
2022/08/28 11:23:28;;;;;;;;;;;20.90;99.90;;;;;;4967225;28;19969;-69
2022/08/28 11:25:58;;;;;;;;;;;20.90;99.90;;;;;;4970712;28;19933;-68
2022/08/28 11:28:39;;;;;;;;;;;21.30;99.90;;;;;;4967929;28;19930;-68
2022/08/28 11:31:24;;;;;;;;;;;21.30;99.90;;;;;;4969692;28;20017;-68
2022/08/28 11:33:54;;;;;;;;;;;21.50;99.60;;;;;;4968673;28;20025;-68
2022/08/28 11:36:35;;;;;;;;;;;21.20;99.90;;;;;;4969502;28;19926;-67
2022/08/28 11:39:05;;;;;;;;;;;21.40;99.90;;;;;;4968116;28;19930;-68
2022/08/28 11:41:35;;;;;;;;;;;21.70;99.90;;;;;;4972850;28;19932;-68
2022/08/28 11:44:20;;;;;;;;;;;21.70;99.70;;;;;;4972870;28;19960;-69
2022/08/28 11:46:47;;;;;;;;;;;21.20;99.90;;;;;;4965042;28;19932;-69
2022/08/28 11:49:29;;;;;;;;;;;21.30;99.90;;;;;;4973984;28;20406;-69
2022/08/28 11:52:03;;;;;;;;;;;21.70;99.90;;;;;;4971763;28;19969;-67
2022/08/28 11:54:40;;;;;;;;;;;21.60;99.90;;;;;;4973350;28;19926;-68
2022/08/28 11:57:13;;;;;;;;;;;22.00;99.90;;;;;;4966857;28;19926;-68
2022/08/28 11:59:57;;;;;;;;;;;22.00;99.20;;;;;;4955019;28;19931;-68
2022/08/28 12:02:42;;;;;;;;;;;21.40;99.90;;;;;;4959052;28;20016;-68
2022/08/28 12:05:11;;;;;;;;;;;21.50;99.90;;;;;;4973558;28;19930;-68
2022/08/28 12:07:38;;;;;;;;;;;21.40;98.50;;;;;;4972099;28;19973;-68
2022/08/28 12:10:32;;;;;;;;;;;21.50;98.80;;;;;;4973511;28;19933;-68
2022/08/28 12:13:01;;;;;;;;;;;21.60;98.40;;;;;;4966929;28;20406;-68
2022/08/28 12:15:39;;;;;;;;;;;21.60;98.10;;;;;;4971269;28;20014;-68
2022/08/28 12:18:06;;;;;;;;;;;21.90;98.10;;;;;;4971414;28;19926;-68
2022/08/28 12:21:00;;;;;;;;;;;21.80;97.40;;;;;;4973357;28;20024;-68
2022/08/28 12:23:31;;;;;;;;;;;21.70;98.00;;;;;;4937374;28;20389;-68
2022/08/28 12:26:00;;;;;;;;;;;21.60;98.50;;;;;;4972455;28;20313;-68
2022/08/28 12:28:30;;;;;;;;;;;21.50;98.50;;;;;;4969211;28;19980;-68
2022/08/28 12:30:59;;;;;;;;;;;21.90;97.80;;;;;;4972202;28;19933;-68
2022/08/28 12:33:30;;;;;;;;;;;22.10;96.90;;;;;;4968725;28;19926;-68
2022/08/28 12:35:59;;;;;;;;;;;21.90;96.70;;;;;;4973136;28;19930;-68
2022/08/28 12:38:27;;;;;;;;;;;21.60;97.30;;;;;;4971765;28;19926;-67
2022/08/28 12:40:54;;;;;;;;;;;21.60;98.40;;;;;;4967023;28;20100;-68
2022/08/28 12:43:30;;;;;;;;;;;22.20;98.60;;;;;;4957546;28;20009;-68
2022/08/28 12:45:59;;;;;;;;;;;22.00;97.00;;;;;;4953353;29;19973;-68
2022/08/28 12:48:26;;;;;;;;;;;22.30;96.10;;;;;;4967117;28;20013;-69
2022/08/28 12:50:57;;;;;;;;;;;22.40;95.70;;;;;;4969355;28;20288;-68
2022/08/28 12:53:24;;;;;;;;;;;22.10;94.80;;;;;;4970520;28;19948;-68
2022/08/28 12:55:51;;;;;;;;;;;22.10;95.00;;;;;;4970976;28;20255;-68
2022/08/28 12:58:29;;;;;;;;;;;22.50;95.00;;;;;;4971005;28;19926;-68
2022/08/28 13:00:57;;;;;;;;;;;22.40;93.90;;;;;;4970467;28;20405;-68
2022/08/28 13:03:24;;;;;;;;;;;22.70;94.20;;;;;;4970203;28;19981;-68
2022/08/28 13:05:56;;;;;;;;;;;22.30;94.90;;;;;;4971747;28;19965;-68
2022/08/28 13:08:23;;;;;;;;;;;22.60;94.50;;;;;;4969254;28;19927;-68
2022/08/28 13:10:51;;;;;;;;;;;22.10;98.80;;;;;;4972902;28;19932;-68
2022/08/28 13:13:19;;;;;;;;;;;22.30;98.60;;;;;;4970654;28;19933;-68
2022/08/28 13:15:53;;;;;;;;;;;22.40;97.40;;;;;;4967796;28;20390;-69
2022/08/28 13:18:40;;;;;;;;;;;22.60;97.20;;;;;;4970628;28;19972;-68
2022/08/28 13:21:15;;;;;;;;;;;22.60;96.90;;;;;;4972647;28;20337;-68
2022/08/28 13:23:42;;;;;;;;;;;22.70;97.60;;;;;;4969919;28;20017;-68
2022/08/28 13:26:10;;;;;;;;;;;23.10;96.60;;;;;;4966391;28;19926;-68
2022/08/28 13:28:38;;;;;;;;;;;22.70;97.00;;;;;;4969524;28;20297;-68
2022/08/28 13:31:06;;;;;;;;;;;23.20;96.30;;;;;;4971895;28;19930;-68
2022/08/28 13:33:33;;;;;;;;;;;22.90;95.60;;;;;;4970478;28;20237;-68
2022/08/28 13:36:18;;;;;;;;;;;22.60;95.80;;;;;;4970416;28;19948;-68
2022/08/28 13:38:44;;;;;;;;;;;22.70;96.10;;;;;;4968113;28;20285;-68
2022/08/28 13:41:12;;;;;;;;;;;23.00;95.20;;;;;;4971984;28;19926;-69
2022/08/28 13:43:42;;;;;;;;;;;22.80;95.70;;;;;;4968878;28;19934;-69
2022/08/28 13:46:10;;;;;;;;;;;22.80;96.90;;;;;;4969910;28;20009;-68
2022/08/28 13:48:37;;;;;;;;;;;23.20;95.50;;;;;;4963121;28;19926;-68
2022/08/28 13:51:05;;;;;;;;;;;23.30;95.30;;;;;;4955493;28;19940;-68
2022/08/28 13:53:31;;;;;;;;;;;22.70;95.40;;;;;;4962374;28;19933;-68
2022/08/28 13:55:59;;;;;;;;;;;22.50;95.20;;;;;;4959436;28;19926;-68
2022/08/28 13:58:26;;;;;;;;;;;22.70;95.20;;;;;;4966644;28;19937;-68
2022/08/28 14:00:53;;;;;;;;;;;22.80;94.60;;;;;;4962955;28;19926;-69
2022/08/28 14:03:37;;;;;;;;;;;23.00;94.40;;;;;;4952196;28;19930;-69
2022/08/28 14:06:04;;;;;;;;;;;23.20;94.30;;;;;;4967991;28;19930;-68
2022/08/28 14:08:31;;;;;;;;;;;22.90;94.70;;;;;;4964197;28;20461;-68
2022/08/28 14:10:57;;;;;;;;;;;23.10;93.80;;;;;;4968499;28;19934;-68
2022/08/28 14:13:26;;;;;;;;;;;23.10;94.10;;;;;;4963365;28;20017;-68
2022/08/28 14:15:53;;;;;;;;;;;22.90;93.80;;;;;;4959328;28;19980;-68
2022/08/28 14:18:21;;;;;;;;;;;23.00;95.00;;;;;;4964069;28;20022;-68
2022/08/28 14:20:48;;;;;;;;;;;23.10;94.10;;;;;;4962718;28;19934;-68
2022/08/28 14:23:14;;;;;;;;;;;23.20;93.60;;;;;;4962276;28;19966;-68
2022/08/28 14:25:42;;;;;;;;;;;23.40;93.50;;;;;;4963920;28;20368;-68
2022/08/28 14:28:09;;;;;;;;;;;23.20;93.30;;;;;;4961302;28;19926;-68
2022/08/28 14:30:40;;;;;;;;;;;23.10;93.10;;;;;;4963868;28;19926;-68
2022/08/28 14:33:07;;;;;;;;;;;23.00;92.40;;;;;;4962875;28;20328;-68
2022/08/28 14:35:39;;;;;;;;;;;22.90;93.50;;;;;;4963084;28;19979;-68
2022/08/28 14:38:06;;;;;;;;;;;22.70;94.80;;;;;;4966662;28;19965;-68
2022/08/28 14:40:34;;;;;;;;;;;22.40;95.70;;;;;;4966860;28;19925;-68
2022/08/28 14:43:01;;;;;;;;;;;;;;;;;;4961246;28;19941;-68
2022/08/28 14:45:28;;;;;;;;;;;22.60;95.10;;;;;;4964984;28;20005;-68
2022/08/28 14:47:55;;;;;;;;;;;23.10;94.90;;;;;;4965502;28;19930;-68
2022/08/28 14:50:21;;;;;;;;;;;23.00;93.60;;;;;;4966655;28;19933;-68
2022/08/28 14:52:49;;;;;;;;;;;22.90;94.00;;;;;;4962201;28;20014;-68
2022/08/28 14:55:16;;;;;;;;;;;22.90;93.80;;;;;;4963636;28;19962;-69
2022/08/28 14:57:44;;;;;;;;;;;23.10;93.20;;;;;;4964080;28;19926;-69
2022/08/28 15:00:12;;;;;;;;;;;23.00;93.50;;;;;;4965675;28;19980;-69
2022/08/28 15:02:38;;;;;;;;;;;23.00;93.60;;;;;;4966400;28;20092;-68
2022/08/28 15:05:05;;;;;;;;;;;22.80;93.40;;;;;;4964901;28;20293;-68